createdAt,value
2023-05-11T00:00:42.501Z,7.10
2023-05-11T00:03:14.616Z,8.00
2023-05-11T00:05:42.786Z,6.50
2023-05-11T00:08:11.109Z,6.80
2023-05-11T00:10:39.467Z,7.40
2023-05-11T00:13:07.188Z,6.70
2023-05-11T00:15:35.237Z,7.00
2023-05-11T00:18:03.219Z,8.20
2023-05-11T00:20:31.120Z,7.00
2023-05-11T00:22:59.388Z,7.50
2023-05-11T00:25:27.622Z,9.10
2023-05-11T00:27:55.466Z,7.40
2023-05-11T00:30:23.260Z,7.70
2023-05-11T00:32:52.216Z,6.10
2023-05-11T00:35:20.079Z,7.40
2023-05-11T00:37:48.408Z,6.40
2023-05-11T00:40:16.991Z,6.80
2023-05-11T00:42:44.912Z,6.40
2023-05-11T00:45:12.742Z,6.60
2023-05-11T00:47:41.798Z,6.90
2023-05-11T00:50:09.735Z,6.70
2023-05-11T00:52:37.541Z,7.00
2023-05-11T00:55:06.827Z,6.30
2023-05-11T00:57:36.258Z,6.50
2023-05-11T01:00:04.429Z,6.30
2023-05-11T01:02:32.281Z,6.30
2023-05-11T01:05:01.913Z,6.40
2023-05-11T01:07:39.222Z,6.60
2023-05-11T01:10:18.374Z,6.70
2023-05-11T01:13:14.811Z,6.20
2023-05-11T01:15:52.169Z,6.50
2023-05-11T01:18:30.870Z,6.60
2023-05-11T01:21:02.348Z,6.20
2023-05-11T01:23:36.332Z,6.30
2023-05-11T01:26:51.108Z,6.20
2023-05-11T01:31:52.795Z,6.00
2023-05-11T01:34:26.447Z,6.40
2023-05-11T01:39:57.558Z,6.90
2023-05-11T01:42:32.723Z,6.20
2023-05-11T01:45:04.234Z,5.90
2023-05-11T01:47:32.256Z,6.00
2023-05-11T01:50:02.839Z,5.90
2023-05-11T01:52:32.245Z,6.30
2023-05-11T01:55:03.380Z,5.60
2023-05-11T01:57:33.099Z,6.90
2023-05-11T02:00:02.531Z,5.90
2023-05-11T02:02:32.363Z,6.00
2023-05-11T02:05:01.959Z,6.00
2023-05-11T02:07:32.107Z,6.40
2023-05-11T02:10:01.275Z,5.80
2023-05-11T02:12:33.855Z,6.70
2023-05-11T02:15:03.846Z,6.70
2023-05-11T02:17:32.818Z,5.90
2023-05-11T02:20:04.048Z,6.10
2023-05-11T02:22:34.155Z,5.90
2023-05-11T02:25:02.326Z,6.00
2023-05-11T02:27:30.254Z,6.20
2023-05-11T02:29:58.209Z,6.90
2023-05-11T02:32:30.007Z,6.40
2023-05-11T02:35:06.043Z,6.40
2023-05-11T02:37:40.863Z,6.60
2023-05-11T02:40:17.270Z,6.30
2023-05-11T02:42:48.909Z,6.20
2023-05-11T02:45:19.507Z,7.00
2023-05-11T02:47:56.351Z,6.30
2023-05-11T02:50:28.402Z,6.80
2023-05-11T02:53:00.815Z,6.20
2023-05-11T02:55:29.387Z,6.10
2023-05-11T02:57:58.019Z,6.20
2023-05-11T03:00:25.890Z,6.50
2023-05-11T03:02:53.824Z,7.30
2023-05-11T03:05:21.728Z,6.10
2023-05-11T03:07:49.502Z,5.90
2023-05-11T03:10:17.790Z,6.20
2023-05-11T03:12:46.767Z,6.50
2023-05-11T03:15:15.964Z,6.30
2023-05-11T03:17:44.440Z,6.40
2023-05-11T03:20:12.774Z,6.50
2023-05-11T03:22:40.931Z,5.90
2023-05-11T03:25:09.950Z,6.80
2023-05-11T03:27:41.245Z,5.80
2023-05-11T03:30:11.267Z,6.50
2023-05-11T03:32:39.027Z,6.00
2023-05-11T03:35:07.882Z,6.60
2023-05-11T03:37:38.496Z,6.20
2023-05-11T03:40:08.282Z,6.80
2023-05-11T03:42:38.108Z,6.10
2023-05-11T03:45:09.315Z,6.20
2023-05-11T03:47:41.200Z,5.80
2023-05-11T03:50:09.687Z,6.80
2023-05-11T03:52:37.982Z,6.00
2023-05-11T03:55:06.494Z,6.10
2023-05-11T03:57:35.097Z,6.20
2023-05-11T04:00:03.548Z,6.50
2023-05-11T04:02:31.860Z,5.90
2023-05-11T04:04:59.659Z,5.50
2023-05-11T04:07:27.390Z,5.60
2023-05-11T04:09:55.130Z,6.20
2023-05-11T04:12:22.915Z,5.90
2023-05-11T04:14:51.295Z,6.10
2023-05-11T04:17:19.090Z,6.10
2023-05-11T04:19:46.806Z,6.30
2023-05-11T04:22:14.607Z,6.10
2023-05-11T04:24:42.300Z,6.30
2023-05-11T04:27:10.025Z,5.50
2023-05-11T04:29:38.284Z,6.00
2023-05-11T04:32:06.134Z,5.90
2023-05-11T04:34:33.946Z,5.80
2023-05-11T04:37:07.141Z,5.10
2023-05-11T04:39:35.604Z,5.50
2023-05-11T04:42:03.918Z,6.10
2023-05-11T04:44:31.666Z,5.90
2023-05-11T04:46:59.585Z,5.70
2023-05-11T04:49:30.944Z,5.70
2023-05-11T04:51:58.653Z,7.00
2023-05-11T04:54:30.989Z,6.10
2023-05-11T04:56:59.221Z,6.20
2023-05-11T04:59:26.974Z,7.30
2023-05-11T05:01:54.892Z,7.00
2023-05-11T05:04:30.475Z,6.00
2023-05-11T05:06:58.835Z,6.00
2023-05-11T05:09:27.079Z,6.50
2023-05-11T05:12:00.917Z,7.00
2023-05-11T05:14:37.892Z,6.10
2023-05-11T05:17:05.768Z,6.50
2023-05-11T05:19:36.879Z,6.50
2023-05-11T05:22:05.504Z,6.80
2023-05-11T05:24:36.007Z,6.70
2023-05-11T05:27:03.898Z,6.70
2023-05-11T05:29:34.104Z,5.80
2023-05-11T05:32:02.287Z,6.90
2023-05-11T05:34:33.436Z,6.60
2023-05-11T05:37:01.192Z,6.40
2023-05-11T05:39:29.092Z,7.00
2023-05-11T05:41:56.844Z,6.30
2023-05-11T05:44:24.572Z,6.20
2023-05-11T05:46:52.522Z,5.60
2023-05-11T05:49:20.865Z,5.70
2023-05-11T05:51:50.812Z,6.30
2023-05-11T05:54:18.617Z,6.20
2023-05-11T05:56:55.560Z,5.70
2023-05-11T05:59:23.573Z,5.70
2023-05-11T06:01:52.175Z,4.90
2023-05-11T06:04:20.149Z,6.50
2023-05-11T06:06:48.192Z,5.50
2023-05-11T06:09:15.965Z,6.30
2023-05-11T06:11:43.800Z,5.70
2023-05-11T06:14:11.745Z,6.20
2023-05-11T06:16:45.555Z,5.70
2023-05-11T06:19:13.697Z,5.50
2023-05-11T06:21:43.008Z,6.20
2023-05-11T06:24:10.721Z,5.60
2023-05-11T06:26:38.578Z,5.90
2023-05-11T06:29:08.127Z,5.80
2023-05-11T06:31:37.137Z,7.10
2023-05-11T06:34:04.953Z,6.50
2023-05-11T06:36:33.020Z,5.90
2023-05-11T06:39:00.836Z,7.50
2023-05-11T06:41:29.118Z,6.20
2023-05-11T06:43:57.080Z,5.80
2023-05-11T06:46:24.979Z,6.60
2023-05-11T06:48:53.068Z,5.90
2023-05-11T06:51:24.272Z,6.20
2023-05-11T06:53:52.067Z,5.90
2023-05-11T06:56:21.997Z,6.70
2023-05-11T06:59:14.862Z,6.10
2023-05-11T07:01:43.039Z,6.10
2023-05-11T07:04:16.726Z,6.40
2023-05-11T07:06:55.415Z,5.80
2023-05-11T07:09:23.176Z,6.70
2023-05-11T07:11:53.819Z,5.40
2023-05-11T07:14:24.185Z,5.90
2023-05-11T07:16:58.279Z,5.80
2023-05-11T07:19:26.780Z,6.10
2023-05-11T07:21:54.601Z,5.40
2023-05-11T07:24:22.395Z,6.60
2023-05-11T07:27:06.624Z,6.10
2023-05-11T07:29:35.059Z,5.10
2023-05-11T07:32:11.656Z,5.90
2023-05-11T07:34:47.052Z,5.60
2023-05-11T07:37:15.374Z,6.40
2023-05-11T07:39:43.831Z,5.70
2023-05-11T07:42:12.710Z,5.40
2023-05-11T07:44:43.044Z,5.40
2023-05-11T07:47:25.029Z,5.70
2023-05-11T07:50:01.655Z,7.00
2023-05-11T07:52:44.775Z,6.30
2023-05-11T07:55:25.110Z,6.10
2023-05-11T07:58:04.010Z,5.20
2023-05-11T08:00:42.560Z,5.70
2023-05-11T08:03:11.662Z,6.00
2023-05-11T08:05:44.432Z,5.90
2023-05-11T08:08:24.421Z,6.00
2023-05-11T08:10:58.455Z,6.30
2023-05-11T08:13:34.476Z,6.50
2023-05-11T08:16:03.215Z,5.10
2023-05-11T08:18:36.783Z,5.30
2023-05-11T08:23:35.720Z,5.50
2023-05-11T08:26:04.289Z,5.80
2023-05-11T08:28:37.977Z,5.90
2023-05-11T08:31:08.576Z,5.70
2023-05-11T08:33:42.822Z,5.90
2023-05-11T08:36:17.100Z,5.60
2023-05-11T08:38:45.022Z,5.80
2023-05-11T08:41:13.885Z,5.80
2023-05-11T08:43:43.631Z,6.30
2023-05-11T08:46:29.702Z,5.90
2023-05-11T08:48:59.071Z,5.00
2023-05-11T08:51:32.862Z,5.20
2023-05-11T08:54:00.934Z,5.90
2023-05-11T08:56:29.964Z,5.90
2023-05-11T08:59:01.390Z,5.30
2023-05-11T09:01:29.962Z,4.90
2023-05-11T09:04:05.515Z,5.40
2023-05-11T09:06:39.138Z,5.20
2023-05-11T09:09:10.452Z,5.80
2023-05-11T09:11:39.795Z,5.80
2023-05-11T09:14:17.971Z,5.20
2023-05-11T09:16:46.560Z,5.50
2023-05-11T09:19:22.162Z,5.10
2023-05-11T09:21:52.853Z,4.70
2023-05-11T09:24:21.940Z,4.60
2023-05-11T09:26:50.109Z,5.30
2023-05-11T09:29:21.509Z,5.20
2023-05-11T09:31:49.385Z,4.30
2023-05-11T09:34:19.669Z,5.00
2023-05-11T09:36:57.033Z,4.40
2023-05-11T09:39:44.691Z,5.00
2023-05-11T09:42:24.117Z,4.40
2023-05-11T09:44:58.595Z,5.00
2023-05-11T09:47:27.729Z,4.30
2023-05-11T09:49:56.320Z,3.50
2023-05-11T09:52:27.077Z,3.60
2023-05-11T09:54:55.117Z,3.80
2023-05-11T09:57:27.843Z,4.30
2023-05-11T09:59:59.732Z,4.50
2023-05-11T10:02:31.422Z,4.00
2023-05-11T10:05:01.694Z,4.10
2023-05-11T10:07:33.991Z,3.70
2023-05-11T10:10:08.669Z,3.90
2023-05-11T10:12:42.749Z,3.90
2023-05-11T10:15:17.485Z,3.80
2023-05-11T10:17:45.964Z,4.30
2023-05-11T10:20:14.474Z,3.40
2023-05-11T10:22:45.931Z,3.80
2023-05-11T10:25:16.211Z,3.60
2023-05-11T10:30:30.799Z,3.40
2023-05-11T10:33:01.079Z,3.90
2023-05-11T10:35:30.649Z,3.20
2023-05-11T10:37:58.914Z,3.60
2023-05-11T10:40:27.274Z,3.90
2023-05-11T10:43:15.929Z,4.10
2023-05-11T10:46:30.448Z,3.60
2023-05-11T10:49:33.941Z,3.60
2023-05-11T10:52:31.235Z,3.60
2023-05-11T10:55:25.059Z,3.30
2023-05-11T10:57:58.708Z,2.70
2023-05-11T11:01:15.673Z,2.90
2023-05-11T11:03:57.691Z,3.30
2023-05-11T11:06:26.088Z,3.40
2023-05-11T11:09:01.516Z,3.40
2023-05-11T11:11:34.111Z,3.10
2023-05-11T11:14:06.063Z,3.40
2023-05-11T11:16:34.177Z,2.90
2023-05-11T11:19:32.915Z,2.70
2023-05-11T11:22:02.277Z,3.30
2023-05-11T11:24:39.768Z,2.90
2023-05-11T11:27:09.771Z,2.90
2023-05-11T11:29:40.522Z,2.70
2023-05-11T11:32:24.440Z,3.00
2023-05-11T11:34:53.082Z,3.30
2023-05-11T11:37:22.370Z,2.70
2023-05-11T11:39:53.701Z,2.90
2023-05-11T11:42:31.181Z,2.90
2023-05-11T11:45:29.144Z,3.20
2023-05-11T11:48:13.714Z,3.10
2023-05-11T11:50:43.930Z,3.20
2023-05-11T11:53:13.817Z,4.60
2023-05-11T11:55:46.959Z,3.10
2023-05-11T11:58:43.632Z,2.90
2023-05-11T12:01:26.066Z,3.00
2023-05-11T12:04:11.932Z,3.40
2023-05-11T12:06:41.619Z,3.20
2023-05-11T12:09:09.809Z,3.10
2023-05-11T12:11:38.651Z,3.30
2023-05-11T12:14:10.237Z,3.00
2023-05-11T12:16:43.316Z,3.00
2023-05-11T12:19:11.795Z,3.20
2023-05-11T12:21:40.045Z,2.90
2023-05-11T12:24:15.958Z,2.90
2023-05-11T12:26:43.738Z,3.20
2023-05-11T12:29:14.045Z,3.40
2023-05-11T12:31:46.238Z,2.90
2023-05-11T12:34:19.104Z,3.10
2023-05-11T12:36:48.962Z,3.20
2023-05-11T12:39:20.953Z,3.10
2023-05-11T12:41:50.111Z,3.10
2023-05-11T12:44:19.511Z,3.00
2023-05-11T12:46:48.855Z,3.10
2023-05-11T12:49:24.575Z,3.20
2023-05-11T12:51:56.091Z,3.60
2023-05-11T12:54:35.207Z,3.40
2023-05-11T12:57:08.948Z,3.20
2023-05-11T12:59:41.635Z,3.40
2023-05-11T13:02:18.607Z,3.30
2023-05-11T13:04:47.836Z,3.20
2023-05-11T13:07:25.182Z,3.40
2023-05-11T13:10:00.893Z,3.40
2023-05-11T13:12:32.252Z,3.10
2023-05-11T13:15:14.385Z,3.40
2023-05-11T13:17:43.413Z,3.00
2023-05-11T13:20:26.721Z,2.70
2023-05-11T13:23:11.553Z,3.10
2023-05-11T13:25:45.345Z,2.90
2023-05-11T13:28:18.686Z,3.30
2023-05-11T13:30:51.197Z,4.10
2023-05-11T13:33:19.821Z,3.40
2023-05-11T13:35:47.695Z,3.10
2023-05-11T13:38:15.506Z,3.50
2023-05-11T13:40:43.224Z,3.30
2023-05-11T13:43:10.933Z,3.10
2023-05-11T13:45:41.329Z,3.30
2023-05-11T13:48:10.966Z,3.00
2023-05-11T13:50:39.740Z,3.30
2023-05-11T13:53:07.517Z,3.40
2023-05-11T13:55:43.455Z,3.70
2023-05-11T13:58:11.353Z,3.40
2023-05-11T14:00:40.260Z,3.10
2023-05-11T14:03:08.277Z,2.70
2023-05-11T14:05:38.513Z,3.20
2023-05-11T14:08:07.011Z,3.80
2023-05-11T14:10:34.869Z,3.20
2023-05-11T14:13:02.717Z,4.00
2023-05-11T14:15:30.949Z,3.20
2023-05-11T14:17:58.902Z,2.90
2023-05-11T14:20:27.121Z,3.20
2023-05-11T14:22:54.865Z,2.80
2023-05-11T14:25:22.935Z,3.40
2023-05-11T14:27:54.655Z,3.20
2023-05-11T14:30:22.834Z,2.80
2023-05-11T14:32:52.721Z,2.90
2023-05-11T14:35:21.408Z,2.90
2023-05-11T14:37:49.340Z,3.40
2023-05-11T14:40:17.047Z,3.10
2023-05-11T14:42:45.453Z,3.50
2023-05-11T14:45:13.169Z,3.70
2023-05-11T14:47:41.017Z,3.10
2023-05-11T14:50:09.803Z,3.20
2023-05-11T14:52:37.674Z,2.90
2023-05-11T14:55:05.847Z,2.80
2023-05-11T14:57:34.124Z,3.00
2023-05-11T15:00:01.937Z,3.50
2023-05-11T15:02:29.936Z,3.20
2023-05-11T15:04:58.037Z,3.00
2023-05-11T15:07:26.861Z,3.00
2023-05-11T15:09:54.849Z,3.60
2023-05-11T15:12:23.229Z,2.70
2023-05-11T15:14:54.432Z,2.70
2023-05-11T15:17:22.291Z,3.30
2023-05-11T15:19:52.975Z,2.80
2023-05-11T15:22:22.604Z,3.10
2023-05-11T15:24:50.442Z,3.10
2023-05-11T15:27:18.198Z,2.70
2023-05-11T15:29:46.311Z,2.80
2023-05-11T15:32:15.461Z,3.10
2023-05-11T15:34:57.928Z,2.80
2023-05-11T15:37:28.540Z,3.20
2023-05-11T15:39:56.581Z,2.90
2023-05-11T15:42:25.060Z,3.30
2023-05-11T15:44:55.367Z,2.90
2023-05-11T15:47:26.392Z,2.80
2023-05-11T15:49:54.614Z,3.20
2023-05-11T15:52:22.387Z,2.90
2023-05-11T15:54:50.322Z,3.30
2023-05-11T15:57:18.664Z,3.40
2023-05-11T15:59:46.701Z,2.70
2023-05-11T16:02:14.587Z,3.50
2023-05-11T16:04:42.398Z,3.00
2023-05-11T16:07:10.232Z,3.20
2023-05-11T16:09:38.355Z,3.70
2023-05-11T16:12:07.055Z,3.30
2023-05-11T16:14:34.871Z,3.60
2023-05-11T16:17:03.215Z,3.20
2023-05-11T16:19:33.589Z,3.00
2023-05-11T16:22:01.347Z,3.10
2023-05-11T16:24:32.151Z,3.10
2023-05-11T16:27:01.909Z,3.30
2023-05-11T16:29:29.719Z,4.20
2023-05-11T16:31:57.606Z,3.30
2023-05-11T16:34:25.429Z,2.70
2023-05-11T16:36:53.164Z,3.00
2023-05-11T16:39:21.578Z,3.00
2023-05-11T16:41:49.775Z,2.90
2023-05-11T16:44:17.616Z,3.10
2023-05-11T16:46:45.499Z,3.60
2023-05-11T16:49:13.319Z,3.10
2023-05-11T16:51:41.708Z,3.40
2023-05-11T16:54:10.601Z,3.30
2023-05-11T16:56:38.837Z,3.70
2023-05-11T16:59:06.734Z,2.60
2023-05-11T17:01:34.488Z,3.30
2023-05-11T17:04:02.981Z,3.50
2023-05-11T17:06:32.072Z,3.30
2023-05-11T17:09:00.196Z,3.30
2023-05-11T17:11:28.435Z,3.20
2023-05-11T17:13:56.443Z,3.30
2023-05-11T17:16:24.892Z,3.20
2023-05-11T17:18:52.952Z,3.40
2023-05-11T17:21:20.789Z,3.30
2023-05-11T17:23:48.707Z,3.40
2023-05-11T17:26:16.881Z,3.60
2023-05-11T17:28:44.629Z,3.60
2023-05-11T17:31:15.476Z,3.60
2023-05-11T17:33:43.442Z,3.80
2023-05-11T17:36:12.722Z,3.60
2023-05-11T17:38:41.032Z,3.90
2023-05-11T17:41:14.592Z,4.40
2023-05-11T17:44:08.351Z,3.50
2023-05-11T17:46:36.164Z,3.80
2023-05-11T17:49:05.285Z,4.20
2023-05-11T17:51:33.132Z,3.40
2023-05-11T17:54:00.942Z,3.70
2023-05-11T17:56:28.702Z,3.50
2023-05-11T17:58:56.757Z,3.70
2023-05-11T18:01:31.679Z,3.60
2023-05-11T18:04:00.948Z,3.70
2023-05-11T18:06:29.436Z,4.00
2023-05-11T18:08:58.916Z,4.50
2023-05-11T18:11:27.423Z,4.10
2023-05-11T18:13:55.241Z,3.90
2023-05-11T18:16:23.635Z,4.50
2023-05-11T18:18:52.063Z,4.40
2023-05-11T18:21:19.929Z,3.60
2023-05-11T18:23:47.701Z,4.40
2023-05-11T18:26:16.385Z,3.70
2023-05-11T18:28:44.690Z,4.30
2023-05-11T18:31:13.032Z,4.30
2023-05-11T18:33:40.975Z,4.80
2023-05-11T18:36:08.691Z,3.90
2023-05-11T18:38:36.553Z,4.10
2023-05-11T18:41:05.824Z,4.20
2023-05-11T18:43:34.530Z,4.00
2023-05-11T18:46:07.624Z,4.80
2023-05-11T18:48:35.576Z,4.10
2023-05-11T18:51:06.050Z,4.20
2023-05-11T18:53:34.039Z,4.60
2023-05-11T18:56:01.784Z,5.20
2023-05-11T18:58:30.050Z,4.70
2023-05-11T19:01:01.313Z,5.20
2023-05-11T19:03:31.805Z,4.60
2023-05-11T19:06:02.886Z,5.10
2023-05-11T19:08:31.154Z,5.40
2023-05-11T19:11:08.443Z,5.10
2023-05-11T19:13:36.921Z,5.40
2023-05-11T19:16:05.393Z,6.00
2023-05-11T19:18:35.628Z,5.30
2023-05-11T19:21:05.344Z,5.40
2023-05-11T19:23:33.661Z,6.20
2023-05-11T19:26:01.865Z,5.60
2023-05-11T19:28:32.128Z,5.10
2023-05-11T19:31:02.233Z,5.50
2023-05-11T19:33:41.764Z,5.80
2023-05-11T19:36:12.548Z,6.20
2023-05-11T19:38:40.320Z,5.90
2023-05-11T19:41:09.008Z,5.90
2023-05-11T19:43:37.623Z,5.80
2023-05-11T19:46:08.408Z,5.70
2023-05-11T19:48:36.554Z,6.60
2023-05-11T19:51:04.663Z,5.60
2023-05-11T19:53:33.294Z,7.70
2023-05-11T19:56:01.124Z,7.90
2023-05-11T19:58:31.586Z,6.20
2023-05-11T20:01:00.189Z,6.00
2023-05-11T20:03:28.944Z,6.60
2023-05-11T20:05:57.186Z,6.40
2023-05-11T20:08:25.451Z,6.10
2023-05-11T20:10:53.123Z,6.20
2023-05-11T20:13:21.220Z,6.40
2023-05-11T20:15:49.579Z,6.10
2023-05-11T20:18:18.826Z,5.90
2023-05-11T20:20:46.595Z,6.50
2023-05-11T20:23:14.993Z,6.40
2023-05-11T20:25:44.158Z,6.40
2023-05-11T20:28:12.438Z,6.50
2023-05-11T20:30:40.673Z,6.30
2023-05-11T20:35:45.242Z,6.00
2023-05-11T20:38:13.886Z,6.90
2023-05-11T20:40:44.564Z,6.80
2023-05-11T20:43:15.138Z,7.00
2023-05-11T20:45:43.864Z,6.20
2023-05-11T20:48:12.278Z,6.50
2023-05-11T20:50:40.728Z,7.20
2023-05-11T20:53:08.899Z,6.20
2023-05-11T20:55:36.967Z,7.60
2023-05-11T20:58:05.199Z,6.50
2023-05-11T21:00:33.098Z,6.80
2023-05-11T21:03:01.495Z,6.70
2023-05-11T21:05:29.473Z,6.40
2023-05-11T21:07:58.001Z,7.10
2023-05-11T21:10:26.319Z,6.70
2023-05-11T21:12:54.284Z,6.80
2023-05-11T21:15:22.856Z,6.20
2023-05-11T21:17:50.628Z,7.20
2023-05-11T21:20:18.778Z,6.10
2023-05-11T21:22:47.695Z,7.80
2023-05-11T21:25:15.610Z,6.40
2023-05-11T21:27:43.474Z,6.40
2023-05-11T21:30:11.928Z,6.70
2023-05-11T21:32:39.665Z,6.70
2023-05-11T21:35:08.117Z,6.70
2023-05-11T21:37:36.524Z,6.10
2023-05-11T21:40:23.541Z,6.80
2023-05-11T21:42:51.349Z,6.60
2023-05-11T21:45:20.002Z,6.30
2023-05-11T21:47:47.834Z,6.30
2023-05-11T21:50:17.371Z,5.80
2023-05-11T21:52:45.389Z,6.30
2023-05-11T21:55:13.173Z,6.50
2023-05-11T21:57:40.986Z,6.50
2023-05-11T22:00:11.223Z,5.80
2023-05-11T22:02:39.142Z,6.10
2023-05-11T22:05:07.812Z,6.80
2023-05-11T22:07:35.709Z,6.20
2023-05-11T22:10:03.830Z,6.60
2023-05-11T22:12:31.679Z,6.00
2023-05-11T22:14:59.386Z,5.40
2023-05-11T22:17:27.695Z,5.70
2023-05-11T22:19:55.456Z,6.40
2023-05-11T22:22:23.257Z,6.10
2023-05-11T22:24:51.215Z,6.10
2023-05-11T22:27:19.220Z,6.00
2023-05-11T22:29:48.056Z,6.10
2023-05-11T22:32:16.492Z,6.00
2023-05-11T22:34:44.521Z,5.80
2023-05-11T22:37:12.252Z,6.00
2023-05-11T22:39:40.128Z,6.30
2023-05-11T22:42:08.183Z,6.70
2023-05-11T22:44:36.553Z,7.00
2023-05-11T22:47:07.801Z,6.90
2023-05-11T22:49:36.014Z,6.60
2023-05-11T22:52:05.254Z,6.50
2023-05-11T22:54:33.206Z,5.60
2023-05-11T22:57:01.658Z,6.60
2023-05-11T22:59:29.709Z,5.80
2023-05-11T23:02:02.055Z,5.40
2023-05-11T23:04:32.490Z,6.10
2023-05-11T23:07:00.384Z,6.00
2023-05-11T23:09:28.544Z,5.90
2023-05-11T23:11:56.319Z,6.40
2023-05-11T23:14:27.232Z,6.80
2023-05-11T23:16:55.692Z,5.90
2023-05-11T23:19:25.268Z,6.30
2023-05-11T23:21:53.184Z,6.20
2023-05-11T23:24:21.675Z,6.60
2023-05-11T23:26:49.436Z,6.20
2023-05-11T23:29:17.245Z,5.70
2023-05-11T23:31:45.839Z,5.90
2023-05-11T23:34:14.464Z,5.80
2023-05-11T23:36:42.547Z,6.40
2023-05-11T23:39:10.929Z,6.90
2023-05-11T23:41:38.985Z,5.90
2023-05-11T23:44:06.797Z,6.20
2023-05-11T23:46:36.207Z,6.50
2023-05-11T23:49:04.501Z,6.60
2023-05-11T23:51:32.499Z,5.20
2023-05-11T23:54:00.258Z,6.00
2023-05-11T23:56:28.204Z,6.30
2023-05-11T23:58:55.931Z,6.10
